createdAt,value
2022-10-25T00:00:29.719Z,79.59
2022-10-25T00:02:57.946Z,79.39
2022-10-25T00:05:27.642Z,79.56
2022-10-25T00:07:55.795Z,79.22
2022-10-25T00:10:25.725Z,79.51
2022-10-25T00:12:54.389Z,79.04
2022-10-25T00:15:23.073Z,78.54
2022-10-25T00:17:58.132Z,78.64
2022-10-25T00:20:27.777Z,78.98
2022-10-25T00:22:55.957Z,79.14
2022-10-25T00:25:24.157Z,79.35
2022-10-25T00:27:52.501Z,79.04
2022-10-25T00:30:20.729Z,78.78
2022-10-25T00:32:52.813Z,78.51
2022-10-25T00:35:21.182Z,78.39
2022-10-25T00:37:50.820Z,78.50
2022-10-25T00:40:20.032Z,78.53
2022-10-25T00:42:48.590Z,78.31
2022-10-25T00:45:23.368Z,78.70
2022-10-25T00:47:56.790Z,78.59
2022-10-25T00:50:45.147Z,78.86
2022-10-25T00:53:18.260Z,78.77
2022-10-25T00:55:49.680Z,78.50
2022-10-25T00:58:21.222Z,78.47
2022-10-25T01:00:50.518Z,78.51
2022-10-25T01:03:21.862Z,78.56
2022-10-25T01:05:54.059Z,78.67
2022-10-25T01:08:24.481Z,78.81
2022-10-25T01:10:55.770Z,78.32
2022-10-25T01:13:24.711Z,78.29
2022-10-25T01:16:04.521Z,78.47
2022-10-25T01:18:43.401Z,78.47
2022-10-25T01:21:49.061Z,78.60
2022-10-25T01:25:05.288Z,78.81
2022-10-25T01:27:52.482Z,78.58
2022-10-25T01:30:23.296Z,78.54
2022-10-25T01:33:15.895Z,78.37
2022-10-25T01:35:54.176Z,78.30
2022-10-25T01:38:32.280Z,78.57
2022-10-25T01:41:10.584Z,79.00
2022-10-25T01:43:46.940Z,78.99
2022-10-25T01:46:22.714Z,79.01
2022-10-25T01:49:00.740Z,79.07
2022-10-25T01:51:29.768Z,79.08
2022-10-25T01:53:58.449Z,79.04
2022-10-25T01:56:30.983Z,78.85
2022-10-25T01:59:23.686Z,78.72
2022-10-25T02:02:03.704Z,78.20
2022-10-25T02:04:45.022Z,78.54
2022-10-25T02:07:18.234Z,78.34
2022-10-25T02:09:57.611Z,78.37
2022-10-25T02:12:31.639Z,78.43
2022-10-25T02:15:08.596Z,78.47
2022-10-25T02:17:42.078Z,78.27
2022-10-25T02:20:16.909Z,78.40
2022-10-25T02:22:46.002Z,78.68
2022-10-25T02:25:15.895Z,79.17
2022-10-25T02:27:46.298Z,78.95
2022-10-25T02:30:15.128Z,79.08
2022-10-25T02:32:43.735Z,79.60
2022-10-25T02:35:15.848Z,79.40
2022-10-25T02:37:44.742Z,79.53
2022-10-25T02:40:13.533Z,79.72
2022-10-25T02:42:41.916Z,79.91
2022-10-25T02:45:10.924Z,79.83
2022-10-25T02:47:39.208Z,80.03
2022-10-25T02:50:08.004Z,79.91
2022-10-25T02:52:37.507Z,80.22
2022-10-25T02:55:06.523Z,80.40
2022-10-25T02:57:35.121Z,80.43
2022-10-25T03:00:06.809Z,80.53
2022-10-25T03:02:35.147Z,80.91
2022-10-25T03:05:06.572Z,81.04
2022-10-25T03:07:35.827Z,80.88
2022-10-25T03:10:09.121Z,80.85
2022-10-25T03:12:37.377Z,80.73
2022-10-25T03:15:09.981Z,80.90
2022-10-25T03:17:38.190Z,81.05
2022-10-25T03:20:07.506Z,81.17
2022-10-25T03:22:36.266Z,80.97
2022-10-25T03:27:40.225Z,80.43
2022-10-25T03:30:09.907Z,80.27
2022-10-25T03:32:38.563Z,80.33
2022-10-25T03:35:07.759Z,80.14
2022-10-25T03:37:36.074Z,80.19
2022-10-25T03:40:06.634Z,80.27
2022-10-25T03:42:34.763Z,80.20
2022-10-25T03:45:03.096Z,80.36
2022-10-25T03:47:31.436Z,80.43
2022-10-25T03:49:59.599Z,80.30
2022-10-25T03:52:27.809Z,80.46
2022-10-25T03:54:58.916Z,80.73
2022-10-25T03:57:28.483Z,80.95
2022-10-25T04:00:00.878Z,81.39
2022-10-25T04:02:29.350Z,81.28
2022-10-25T04:04:57.500Z,81.23
2022-10-25T04:07:25.695Z,81.36
2022-10-25T04:09:53.871Z,81.49
2022-10-25T04:12:22.091Z,81.36
2022-10-25T04:14:51.770Z,81.28
2022-10-25T04:17:20.017Z,81.19
2022-10-25T04:19:48.429Z,80.85
2022-10-25T04:22:16.643Z,80.87
2022-10-25T04:24:44.862Z,80.57
2022-10-25T04:27:13.125Z,80.56
2022-10-25T04:29:41.554Z,80.17
2022-10-25T04:32:11.883Z,79.88
2022-10-25T04:34:40.248Z,80.10
2022-10-25T04:37:08.425Z,79.78
2022-10-25T04:39:36.694Z,79.21
2022-10-25T04:42:05.038Z,79.28
2022-10-25T04:44:33.207Z,79.27
2022-10-25T04:47:01.457Z,79.24
2022-10-25T04:49:31.002Z,79.36
2022-10-25T04:51:59.785Z,79.38
2022-10-25T04:54:27.958Z,79.27
2022-10-25T04:56:58.238Z,79.30
2022-10-25T04:59:26.405Z,79.14
2022-10-25T05:01:54.614Z,79.10
2022-10-25T05:04:22.959Z,79.26
2022-10-25T05:06:52.473Z,79.27
2022-10-25T05:09:20.638Z,79.43
2022-10-25T05:11:49.379Z,79.43
2022-10-25T05:14:17.569Z,79.21
2022-10-25T05:16:45.768Z,79.24
2022-10-25T05:19:13.949Z,79.24
2022-10-25T05:21:42.181Z,79.12
2022-10-25T05:24:11.767Z,79.07
2022-10-25T05:26:40.075Z,79.14
2022-10-25T05:29:10.422Z,79.33
2022-10-25T05:31:40.531Z,78.86
2022-10-25T05:34:09.219Z,78.82
2022-10-25T05:36:37.433Z,78.31
2022-10-25T05:39:05.763Z,78.63
2022-10-25T05:41:37.138Z,78.86
2022-10-25T05:44:06.162Z,79.22
2022-10-25T05:46:34.375Z,79.24
2022-10-25T05:49:02.915Z,79.42
2022-10-25T05:51:35.079Z,79.49
2022-10-25T05:54:06.584Z,79.51
2022-10-25T05:56:37.425Z,79.46
2022-10-25T05:59:09.502Z,79.53
2022-10-25T06:01:43.902Z,79.56
2022-10-25T06:04:12.926Z,79.54
2022-10-25T06:06:42.398Z,79.71
2022-10-25T06:09:11.411Z,79.81
2022-10-25T06:11:41.582Z,79.90
2022-10-25T06:14:11.667Z,80.14
2022-10-25T06:16:40.199Z,80.37
2022-10-25T06:19:08.651Z,80.51
2022-10-25T06:21:37.196Z,80.77
2022-10-25T06:24:06.492Z,81.11
2022-10-25T06:26:34.620Z,80.92
2022-10-25T06:29:05.796Z,80.79
2022-10-25T06:31:34.395Z,80.24
2022-10-25T06:34:03.200Z,80.01
2022-10-25T06:36:32.729Z,79.78
2022-10-25T06:39:05.343Z,79.53
2022-10-25T06:41:37.039Z,79.45
2022-10-25T06:44:07.938Z,78.79
2022-10-25T06:47:04.530Z,78.94
2022-10-25T06:49:26.621Z,79.01
2022-10-25T06:51:55.087Z,78.86
2022-10-25T06:54:25.492Z,78.14
2022-10-25T06:56:53.841Z,77.98
2022-10-25T06:59:23.861Z,78.08
2022-10-25T07:01:52.578Z,77.96
2022-10-25T07:04:20.919Z,78.05
2022-10-25T07:06:51.508Z,78.11
2022-10-25T07:09:22.650Z,78.11
2022-10-25T07:11:51.173Z,78.33
2022-10-25T07:14:19.355Z,77.98
2022-10-25T07:16:49.281Z,77.83
2022-10-25T07:19:17.470Z,77.92
2022-10-25T07:21:48.815Z,77.70
2022-10-25T07:24:19.099Z,77.85
2022-10-25T07:26:52.853Z,77.69
2022-10-25T07:29:21.458Z,77.46
2022-10-25T07:31:51.127Z,77.40
2022-10-25T07:34:20.285Z,77.25
2022-10-25T07:36:48.422Z,77.24
2022-10-25T07:39:16.557Z,77.53
2022-10-25T07:41:44.737Z,77.73
2022-10-25T07:44:17.525Z,77.68
2022-10-25T07:46:48.063Z,77.68
2022-10-25T07:49:17.953Z,77.87
2022-10-25T07:51:46.294Z,78.26
2022-10-25T07:54:14.512Z,78.25
2022-10-25T07:56:42.752Z,78.30
2022-10-25T07:59:11.101Z,78.57
2022-10-25T08:01:39.300Z,78.79
2022-10-25T08:04:08.641Z,78.90
2022-10-25T08:06:38.154Z,78.92
2022-10-25T08:09:14.564Z,78.96
2022-10-25T08:11:43.586Z,79.09
2022-10-25T08:14:11.877Z,78.98
2022-10-25T08:16:40.219Z,78.88
2022-10-25T08:19:10.646Z,78.55
2022-10-25T08:21:40.169Z,78.03
2022-10-25T08:24:08.770Z,77.74
2022-10-25T08:26:37.293Z,77.37
2022-10-25T08:29:05.792Z,77.16
2022-10-25T08:31:34.389Z,76.59
2022-10-25T08:34:02.873Z,76.77
2022-10-25T08:36:31.287Z,76.43
2022-10-25T08:39:00.856Z,76.08
2022-10-25T08:41:41.574Z,76.00
2022-10-25T08:44:17.221Z,75.93
2022-10-25T08:46:55.796Z,75.83
2022-10-25T08:49:29.635Z,75.92
2022-10-25T08:51:59.458Z,75.54
2022-10-25T08:54:32.296Z,75.57
2022-10-25T08:57:16.419Z,75.76
2022-10-25T08:59:50.064Z,75.76
2022-10-25T09:02:24.781Z,75.85
2022-10-25T09:04:56.397Z,75.36
2022-10-25T09:07:49.925Z,75.20
2022-10-25T09:10:30.553Z,75.02
2022-10-25T09:13:10.637Z,74.92
2022-10-25T09:15:55.871Z,75.20
2022-10-25T09:18:37.622Z,75.18
2022-10-25T09:21:14.906Z,75.43
2022-10-25T09:23:56.162Z,75.10
2022-10-25T09:26:40.402Z,74.93
2022-10-25T09:29:15.188Z,74.92
2022-10-25T09:31:49.597Z,74.92
2022-10-25T09:34:21.248Z,75.11
2022-10-25T09:36:53.195Z,75.10
2022-10-25T09:39:23.247Z,75.25
2022-10-25T09:41:55.518Z,75.34
2022-10-25T09:44:35.909Z,75.22
2022-10-25T09:47:14.046Z,75.27
2022-10-25T09:49:48.057Z,75.07
2022-10-25T09:52:22.268Z,75.09
2022-10-25T09:54:54.991Z,74.91
2022-10-25T09:57:27.626Z,74.85
2022-10-25T09:59:55.872Z,74.73
2022-10-25T10:02:26.643Z,74.73
2022-10-25T10:04:55.578Z,74.91
2022-10-25T10:07:27.898Z,74.72
2022-10-25T10:10:00.315Z,74.86
2022-10-25T10:12:33.135Z,74.81
2022-10-25T10:15:05.886Z,75.17
2022-10-25T10:17:34.024Z,74.53
2022-10-25T10:20:15.394Z,75.02
2022-10-25T10:22:50.704Z,74.90
2022-10-25T10:25:22.615Z,74.90
2022-10-25T10:27:54.916Z,75.07
2022-10-25T10:30:29.837Z,74.77
2022-10-25T10:33:01.012Z,74.51
2022-10-25T10:35:32.748Z,74.60
2022-10-25T10:38:22.272Z,74.02
2022-10-25T10:40:51.953Z,74.06
2022-10-25T10:43:29.663Z,74.09
2022-10-25T10:46:03.842Z,74.89
2022-10-25T10:48:41.912Z,74.29
2022-10-25T10:54:24.324Z,74.45
2022-10-25T10:56:57.503Z,73.80
2022-10-25T10:59:36.175Z,75.19
2022-10-25T11:02:29.893Z,74.27
2022-10-25T11:04:59.347Z,74.47
2022-10-25T11:07:31.059Z,73.74
2022-10-25T11:10:23.088Z,73.80
2022-10-25T11:13:19.807Z,73.29
2022-10-25T11:16:06.044Z,72.55
2022-10-25T11:18:46.530Z,73.56
2022-10-25T11:21:29.542Z,72.91
2022-10-25T11:24:07.691Z,73.32
2022-10-25T11:26:50.034Z,73.60
2022-10-25T11:29:31.567Z,72.22
2022-10-25T11:32:09.639Z,72.28
2022-10-25T11:34:45.764Z,73.57
2022-10-25T11:37:22.212Z,73.20
2022-10-25T11:40:04.575Z,72.25
2022-10-25T11:42:57.131Z,72.73
2022-10-25T11:45:44.129Z,72.35
2022-10-25T11:48:32.604Z,72.97
2022-10-25T11:51:11.717Z,73.32
2022-10-25T11:54:14.855Z,73.43
2022-10-25T11:56:52.913Z,72.99
2022-10-25T11:59:26.308Z,73.87
2022-10-25T12:02:04.633Z,72.61
2022-10-25T12:04:52.520Z,72.94
2022-10-25T12:07:26.057Z,72.38
2022-10-25T12:10:04.318Z,72.77
2022-10-25T12:12:41.962Z,73.54
2022-10-25T12:15:15.428Z,72.99
2022-10-25T12:17:44.238Z,72.55
2022-10-25T12:20:22.805Z,73.36
2022-10-25T12:22:54.457Z,73.58
2022-10-25T12:25:26.960Z,73.14
2022-10-25T12:28:06.813Z,73.09
2022-10-25T12:30:36.084Z,72.48
2022-10-25T12:33:14.280Z,72.82
2022-10-25T12:35:51.084Z,72.10
2022-10-25T12:38:26.847Z,71.93
2022-10-25T12:41:01.029Z,72.79
2022-10-25T12:43:36.373Z,72.48
2022-10-25T12:46:36.997Z,73.02
2022-10-25T12:49:33.490Z,72.97
2022-10-25T12:52:26.958Z,72.17
2022-10-25T12:55:30.437Z,72.72
2022-10-25T12:58:12.642Z,71.00
2022-10-25T13:00:57.714Z,73.17
2022-10-25T13:03:51.241Z,72.98
2022-10-25T13:06:29.745Z,71.55
2022-10-25T13:09:05.550Z,71.32
2022-10-25T13:11:36.166Z,70.55
2022-10-25T13:14:05.112Z,72.48
2022-10-25T13:16:34.953Z,70.23
2022-10-25T13:19:30.554Z,70.84
2022-10-25T13:22:39.640Z,70.77
2022-10-25T13:25:19.080Z,70.58
2022-10-25T13:28:32.785Z,71.86
2022-10-25T13:31:44.417Z,69.74
2022-10-25T13:34:31.160Z,70.00
2022-10-25T13:37:01.064Z,70.55
2022-10-25T13:39:32.135Z,70.38
2022-10-25T13:42:10.452Z,71.05
2022-10-25T13:44:53.685Z,71.27
2022-10-25T13:47:36.877Z,71.90
2022-10-25T13:50:22.637Z,71.62
2022-10-25T13:53:02.500Z,71.09
2022-10-25T13:55:35.107Z,71.45
2022-10-25T13:58:44.371Z,71.02
2022-10-25T14:01:56.064Z,71.02
2022-10-25T14:04:41.210Z,70.86
2022-10-25T14:07:44.112Z,71.80
2022-10-25T14:10:26.698Z,70.85
2022-10-25T14:13:01.348Z,71.14
2022-10-25T14:15:38.824Z,71.08
2022-10-25T14:18:09.679Z,71.20
2022-10-25T14:20:40.437Z,71.19
2022-10-25T14:23:16.336Z,71.71
2022-10-25T14:25:52.036Z,71.32
2022-10-25T14:28:24.383Z,71.42
2022-10-25T14:30:55.568Z,72.28
2022-10-25T14:33:26.829Z,72.01
2022-10-25T14:35:58.171Z,71.67
2022-10-25T14:38:28.495Z,72.06
2022-10-25T14:40:58.122Z,72.00
2022-10-25T14:43:29.634Z,71.78
2022-10-25T14:45:59.617Z,72.60
2022-10-25T14:48:35.919Z,72.29
2022-10-25T14:51:13.274Z,72.29
2022-10-25T14:53:58.038Z,71.64
2022-10-25T14:56:33.404Z,71.67
2022-10-25T14:59:30.811Z,72.22
2022-10-25T15:02:15.570Z,72.10
2022-10-25T15:04:48.036Z,72.42
2022-10-25T15:07:23.129Z,71.80
2022-10-25T15:09:55.767Z,72.24
2022-10-25T15:12:28.044Z,72.56
2022-10-25T15:14:57.754Z,72.23
2022-10-25T15:17:28.876Z,72.25
2022-10-25T15:20:27.195Z,72.58
2022-10-25T15:23:15.552Z,72.20
2022-10-25T15:25:43.878Z,72.63
2022-10-25T15:28:13.311Z,73.26
2022-10-25T15:30:44.997Z,73.53
2022-10-25T15:33:16.410Z,72.74
2022-10-25T15:35:49.279Z,73.41
2022-10-25T15:38:19.612Z,72.93
2022-10-25T15:40:48.894Z,72.93
2022-10-25T15:43:17.032Z,72.96
2022-10-25T15:45:45.465Z,72.98
2022-10-25T15:48:16.217Z,73.25
2022-10-25T15:50:50.247Z,73.43
2022-10-25T15:53:20.190Z,73.73
2022-10-25T15:55:50.013Z,73.91
2022-10-25T15:58:18.248Z,73.90
2022-10-25T16:00:48.050Z,73.78
2022-10-25T16:03:22.260Z,73.89
2022-10-25T16:05:51.835Z,74.09
2022-10-25T16:08:21.508Z,74.18
2022-10-25T16:10:49.829Z,74.06
2022-10-25T16:13:25.936Z,74.37
2022-10-25T16:15:55.359Z,74.39
2022-10-25T16:20:59.207Z,74.56
2022-10-25T16:23:28.797Z,75.06
2022-10-25T16:25:57.162Z,74.95
2022-10-25T16:30:58.591Z,75.12
2022-10-25T16:33:26.919Z,75.28
2022-10-25T16:35:55.488Z,75.31
2022-10-25T16:38:23.618Z,75.38
2022-10-25T16:40:53.281Z,75.52
2022-10-25T16:43:21.405Z,75.62
2022-10-25T16:45:49.606Z,75.65
2022-10-25T16:48:17.782Z,75.76
2022-10-25T16:50:45.962Z,75.83
2022-10-25T16:53:14.944Z,75.89
2022-10-25T16:55:43.200Z,76.08
2022-10-25T16:58:12.821Z,75.71
2022-10-25T17:00:41.017Z,75.56
2022-10-25T17:03:10.448Z,75.67
2022-10-25T17:05:39.841Z,75.85
2022-10-25T17:08:08.096Z,76.05
2022-10-25T17:10:41.353Z,76.05
2022-10-25T17:13:15.649Z,76.21
2022-10-25T17:15:44.118Z,76.42
2022-10-25T17:18:15.960Z,76.57
2022-10-25T17:20:44.297Z,76.48
2022-10-25T17:23:12.463Z,76.54
2022-10-25T17:25:40.680Z,76.41
2022-10-25T17:28:08.826Z,76.30
2022-10-25T17:30:42.049Z,76.19
2022-10-25T17:33:10.275Z,76.29
2022-10-25T17:35:42.297Z,76.36
2022-10-25T17:38:10.705Z,76.46
2022-10-25T17:40:38.920Z,76.68
2022-10-25T17:43:07.112Z,76.68
2022-10-25T17:45:35.497Z,76.76
2022-10-25T17:48:05.380Z,76.61
2022-10-25T17:50:36.036Z,76.48
2022-10-25T17:53:04.277Z,76.24
2022-10-25T17:55:33.488Z,76.13
2022-10-25T17:58:02.464Z,76.12
2022-10-25T18:00:30.780Z,76.20
2022-10-25T18:03:01.867Z,76.22
2022-10-25T18:05:31.579Z,76.39
2022-10-25T18:07:59.700Z,76.48
2022-10-25T18:10:28.022Z,76.70
2022-10-25T18:12:56.363Z,76.80
2022-10-25T18:15:24.749Z,76.92
2022-10-25T18:17:53.160Z,76.97
2022-10-25T18:20:22.279Z,76.97
2022-10-25T18:22:53.415Z,77.06
2022-10-25T18:25:21.575Z,77.21
2022-10-25T18:27:50.689Z,77.11
2022-10-25T18:30:19.021Z,77.11
2022-10-25T18:32:47.204Z,76.99
2022-10-25T18:35:15.640Z,76.98
2022-10-25T18:37:43.801Z,77.04
2022-10-25T18:40:14.598Z,77.05
2022-10-25T18:42:42.779Z,77.11
2022-10-25T18:45:11.394Z,76.96
2022-10-25T18:47:40.868Z,77.04
2022-10-25T18:50:09.698Z,77.03
2022-10-25T18:52:37.875Z,77.08
2022-10-25T18:55:06.710Z,77.16
2022-10-25T18:57:36.366Z,77.40
2022-10-25T19:00:05.346Z,77.40
2022-10-25T19:02:37.624Z,77.48
2022-10-25T19:07:35.729Z,77.14
2022-10-25T19:10:04.219Z,76.96
2022-10-25T19:12:32.395Z,77.00
2022-10-25T19:15:01.893Z,77.00
2022-10-25T19:17:30.105Z,77.04
2022-10-25T19:19:58.271Z,76.95
2022-10-25T19:22:26.460Z,76.99
2022-10-25T19:24:54.665Z,76.86
2022-10-25T19:27:23.089Z,76.81
2022-10-25T19:29:51.209Z,76.76
2022-10-25T19:32:20.718Z,76.58
2022-10-25T19:34:48.868Z,76.59
2022-10-25T19:37:17.027Z,76.54
2022-10-25T19:39:45.190Z,76.78
2022-10-25T19:42:13.355Z,76.71
2022-10-25T19:44:41.520Z,76.79
2022-10-25T19:47:10.001Z,76.80
2022-10-25T19:49:39.530Z,76.73
2022-10-25T19:52:07.664Z,76.74
2022-10-25T19:54:35.762Z,76.73
2022-10-25T19:57:06.176Z,76.77
2022-10-25T19:59:34.487Z,76.79
2022-10-25T20:02:03.369Z,76.86
2022-10-25T20:04:31.693Z,76.87
2022-10-25T20:07:03.685Z,76.79
2022-10-25T20:09:32.124Z,76.91
2022-10-25T20:12:00.473Z,76.93
2022-10-25T20:14:30.785Z,76.95
2022-10-25T20:16:59.083Z,76.94
2022-10-25T20:19:27.194Z,77.07
2022-10-25T20:21:55.826Z,76.80
2022-10-25T20:24:25.400Z,76.94
2022-10-25T20:26:53.726Z,76.86
2022-10-25T20:29:24.041Z,76.86
2022-10-25T20:31:52.836Z,76.85
2022-10-25T20:34:21.751Z,76.78
2022-10-25T20:36:50.231Z,76.71
2022-10-25T20:39:18.486Z,76.78
2022-10-25T20:41:47.975Z,76.83
2022-10-25T20:44:16.131Z,76.83
2022-10-25T20:46:44.280Z,76.86
2022-10-25T20:49:12.706Z,76.76
2022-10-25T20:51:40.844Z,76.78
2022-10-25T20:54:10.033Z,76.81
2022-10-25T20:56:39.610Z,76.86
2022-10-25T20:59:09.696Z,76.94
2022-10-25T21:01:38.098Z,77.05
2022-10-25T21:04:06.425Z,77.11
2022-10-25T21:06:34.646Z,76.92
2022-10-25T21:09:03.027Z,76.95
2022-10-25T21:11:32.575Z,76.82
2022-10-25T21:14:00.752Z,76.91
2022-10-25T21:16:30.261Z,76.95
2022-10-25T21:18:58.389Z,76.90
2022-10-25T21:21:26.562Z,76.73
2022-10-25T21:23:56.575Z,76.88
2022-10-25T21:26:24.968Z,76.92
2022-10-25T21:28:53.183Z,76.89
2022-10-25T21:31:21.584Z,76.92
2022-10-25T21:33:52.527Z,76.92
2022-10-25T21:36:22.471Z,77.08
2022-10-25T21:38:50.693Z,76.95
2022-10-25T21:41:20.936Z,77.10
2022-10-25T21:43:50.869Z,76.92
2022-10-25T21:46:20.514Z,77.09
2022-10-25T21:48:51.043Z,77.10
2022-10-25T21:51:19.877Z,77.02
2022-10-25T21:53:48.252Z,76.98
2022-10-25T21:56:18.387Z,76.92
2022-10-25T21:58:47.916Z,77.00
2022-10-25T22:01:17.793Z,77.03
2022-10-25T22:03:46.065Z,76.98
2022-10-25T22:06:17.901Z,77.03
2022-10-25T22:08:46.843Z,77.08
2022-10-25T22:11:16.911Z,77.03
2022-10-25T22:13:45.810Z,77.08
2022-10-25T22:16:16.135Z,77.23
2022-10-25T22:18:44.993Z,77.15
2022-10-25T22:21:15.202Z,77.10
2022-10-25T22:23:43.435Z,77.13
2022-10-25T22:26:13.324Z,77.18
2022-10-25T22:28:42.166Z,77.08
2022-10-25T22:31:12.518Z,77.04
2022-10-25T22:33:41.546Z,76.98
2022-10-25T22:36:12.009Z,77.40
2022-10-25T22:38:42.162Z,77.31
2022-10-25T22:41:13.874Z,77.21
2022-10-25T22:43:43.220Z,77.35
2022-10-25T22:46:13.672Z,77.40
2022-10-25T22:48:44.049Z,77.58
2022-10-25T22:51:13.311Z,77.37
2022-10-25T22:53:43.658Z,77.50
2022-10-25T22:56:13.743Z,77.54
2022-10-25T22:58:43.433Z,77.36
2022-10-25T23:01:14.034Z,77.34
2022-10-25T23:03:46.852Z,77.49
2022-10-25T23:06:16.644Z,77.36
2022-10-25T23:08:46.787Z,77.43
2022-10-25T23:11:16.656Z,77.21
2022-10-25T23:13:45.096Z,77.13
2022-10-25T23:16:14.577Z,77.29
2022-10-25T23:18:43.661Z,77.21
2022-10-25T23:21:17.147Z,77.16
2022-10-25T23:23:47.545Z,77.12
2022-10-25T23:26:20.208Z,77.02
2022-10-25T23:28:48.748Z,77.19
2022-10-25T23:31:17.471Z,77.21
2022-10-25T23:33:46.069Z,77.24
2022-10-25T23:36:16.724Z,77.34
2022-10-25T23:38:46.444Z,77.11
2022-10-25T23:41:14.835Z,77.23
2022-10-25T23:43:43.275Z,77.25
2022-10-25T23:46:11.922Z,77.27
2022-10-25T23:48:40.140Z,77.33
2022-10-25T23:51:10.009Z,77.47
2022-10-25T23:53:38.425Z,77.32
2022-10-25T23:56:09.983Z,77.37
2022-10-25T23:58:38.814Z,77.27
